sensor_id;sensor_type;location;lat;lon;timestamp;P1;durP1;ratioP1;P2;durP2;ratioP2
58928;SDS011;44713;53.378;10.022;2023-03-14T00:02:20;7.82;;;3.00;;
58928;SDS011;44713;53.378;10.022;2023-03-14T00:04:46;8.57;;;2.70;;
58928;SDS011;44713;53.378;10.022;2023-03-14T00:07:11;5.25;;;2.50;;
58928;SDS011;44713;53.378;10.022;2023-03-14T00:09:37;4.20;;;2.58;;
58928;SDS011;44713;53.378;10.022;2023-03-14T00:12:03;8.88;;;2.40;;
58928;SDS011;44713;53.378;10.022;2023-03-14T00:14:29;7.25;;;2.35;;
58928;SDS011;44713;53.378;10.022;2023-03-14T00:16:56;10.63;;;2.35;;
58928;SDS011;44713;53.378;10.022;2023-03-14T00:19:21;9.27;;;2.63;;
58928;SDS011;44713;53.378;10.022;2023-03-14T00:21:46;6.13;;;2.38;;
58928;SDS011;44713;53.378;10.022;2023-03-14T00:24:12;5.55;;;2.40;;
58928;SDS011;44713;53.378;10.022;2023-03-14T00:26:37;5.88;;;2.38;;
58928;SDS011;44713;53.378;10.022;2023-03-14T00:29:05;7.10;;;2.38;;
58928;SDS011;44713;53.378;10.022;2023-03-14T00:31:30;2.85;;;2.08;;
58928;SDS011;44713;53.378;10.022;2023-03-14T00:33:56;4.55;;;2.40;;
58928;SDS011;44713;53.378;10.022;2023-03-14T00:36:23;4.32;;;1.80;;
58928;SDS011;44713;53.378;10.022;2023-03-14T00:38:49;6.00;;;2.50;;
58928;SDS011;44713;53.378;10.022;2023-03-14T00:41:17;4.93;;;2.05;;
58928;SDS011;44713;53.378;10.022;2023-03-14T00:43:46;6.78;;;2.47;;
58928;SDS011;44713;53.378;10.022;2023-03-14T00:46:11;6.28;;;2.45;;
58928;SDS011;44713;53.378;10.022;2023-03-14T00:48:37;7.22;;;2.92;;
58928;SDS011;44713;53.378;10.022;2023-03-14T00:51:03;10.15;;;2.90;;
58928;SDS011;44713;53.378;10.022;2023-03-14T00:53:29;3.88;;;2.10;;
58928;SDS011;44713;53.378;10.022;2023-03-14T00:55:55;6.35;;;2.55;;
58928;SDS011;44713;53.378;10.022;2023-03-14T00:58:20;7.60;;;2.53;;
58928;SDS011;44713;53.378;10.022;2023-03-14T01:00:46;5.80;;;2.58;;
58928;SDS011;44713;53.378;10.022;2023-03-14T01:03:11;6.50;;;2.35;;
58928;SDS011;44713;53.378;10.022;2023-03-14T01:05:37;6.00;;;2.38;;
58928;SDS011;44713;53.378;10.022;2023-03-14T01:08:03;5.82;;;2.40;;
58928;SDS011;44713;53.378;10.022;2023-03-14T01:10:29;5.13;;;2.30;;
58928;SDS011;44713;53.378;10.022;2023-03-14T01:12:56;6.05;;;2.40;;
58928;SDS011;44713;53.378;10.022;2023-03-14T01:15:22;10.10;;;3.75;;
58928;SDS011;44713;53.378;10.022;2023-03-14T01:17:47;4.97;;;2.10;;
58928;SDS011;44713;53.378;10.022;2023-03-14T01:20:13;7.78;;;2.45;;
58928;SDS011;44713;53.378;10.022;2023-03-14T01:22:40;10.25;;;2.60;;
58928;SDS011;44713;53.378;10.022;2023-03-14T01:25:10;9.07;;;3.20;;
58928;SDS011;44713;53.378;10.022;2023-03-14T01:27:38;5.28;;;2.70;;
58928;SDS011;44713;53.378;10.022;2023-03-14T01:30:03;7.03;;;2.55;;
58928;SDS011;44713;53.378;10.022;2023-03-14T01:32:30;6.93;;;2.78;;
58928;SDS011;44713;53.378;10.022;2023-03-14T01:34:56;8.85;;;2.90;;
58928;SDS011;44713;53.378;10.022;2023-03-14T01:37:22;4.75;;;2.60;;
58928;SDS011;44713;53.378;10.022;2023-03-14T01:39:48;6.13;;;2.65;;
58928;SDS011;44713;53.378;10.022;2023-03-14T01:42:13;12.60;;;3.10;;
58928;SDS011;44713;53.378;10.022;2023-03-14T01:45:52;8.75;;;2.67;;
58928;SDS011;44713;53.378;10.022;2023-03-14T01:47:51;8.60;;;2.53;;
58928;SDS011;44713;53.378;10.022;2023-03-14T01:50:17;9.70;;;3.00;;
58928;SDS011;44713;53.378;10.022;2023-03-14T01:52:43;5.63;;;2.30;;
58928;SDS011;44713;53.378;10.022;2023-03-14T01:55:12;9.07;;;2.47;;
58928;SDS011;44713;53.378;10.022;2023-03-14T01:57:44;10.88;;;3.30;;
58928;SDS011;44713;53.378;10.022;2023-03-14T02:00:15;8.30;;;2.63;;
58928;SDS011;44713;53.378;10.022;2023-03-14T02:02:44;8.50;;;2.30;;
58928;SDS011;44713;53.378;10.022;2023-03-14T02:05:15;7.82;;;2.10;;
58928;SDS011;44713;53.378;10.022;2023-03-14T02:10:22;6.90;;;2.30;;
58928;SDS011;44713;53.378;10.022;2023-03-14T02:12:51;8.65;;;3.05;;
58928;SDS011;44713;53.378;10.022;2023-03-14T02:15:37;6.97;;;2.22;;
58928;SDS011;44713;53.378;10.022;2023-03-14T02:18:23;7.65;;;2.60;;
58928;SDS011;44713;53.378;10.022;2023-03-14T02:21:14;11.75;;;2.90;;
58928;SDS011;44713;53.378;10.022;2023-03-14T02:26:38;9.73;;;2.60;;
58928;SDS011;44713;53.378;10.022;2023-03-14T02:29:08;9.98;;;3.03;;
58928;SDS011;44713;53.378;10.022;2023-03-14T02:31:34;7.65;;;2.70;;
58928;SDS011;44713;53.378;10.022;2023-03-14T02:34:00;10.98;;;3.17;;
58928;SDS011;44713;53.378;10.022;2023-03-14T02:36:27;12.68;;;2.90;;
58928;SDS011;44713;53.378;10.022;2023-03-14T02:38:56;10.75;;;3.03;;
58928;SDS011;44713;53.378;10.022;2023-03-14T02:41:29;7.75;;;2.78;;
58928;SDS011;44713;53.378;10.022;2023-03-14T02:44:01;6.97;;;2.60;;
58928;SDS011;44713;53.378;10.022;2023-03-14T02:46:27;6.00;;;3.10;;
58928;SDS011;44713;53.378;10.022;2023-03-14T02:49:03;8.32;;;2.70;;
58928;SDS011;44713;53.378;10.022;2023-03-14T02:51:31;6.38;;;2.67;;
58928;SDS011;44713;53.378;10.022;2023-03-14T02:53:57;6.78;;;2.65;;
58928;SDS011;44713;53.378;10.022;2023-03-14T02:56:24;9.13;;;2.50;;
58928;SDS011;44713;53.378;10.022;2023-03-14T02:58:49;13.07;;;2.90;;
58928;SDS011;44713;53.378;10.022;2023-03-14T03:01:31;9.10;;;2.22;;
58928;SDS011;44713;53.378;10.022;2023-03-14T03:03:59;9.32;;;3.03;;
58928;SDS011;44713;53.378;10.022;2023-03-14T03:06:24;10.38;;;2.75;;
58928;SDS011;44713;53.378;10.022;2023-03-14T03:08:49;5.95;;;2.38;;
58928;SDS011;44713;53.378;10.022;2023-03-14T03:11:15;5.93;;;2.30;;
58928;SDS011;44713;53.378;10.022;2023-03-14T03:13:40;6.03;;;2.30;;
58928;SDS011;44713;53.378;10.022;2023-03-14T03:16:07;7.00;;;2.30;;
58928;SDS011;44713;53.378;10.022;2023-03-14T03:18:33;6.85;;;2.83;;
58928;SDS011;44713;53.378;10.022;2023-03-14T03:20:59;8.30;;;2.50;;
58928;SDS011;44713;53.378;10.022;2023-03-14T03:23:29;8.63;;;2.72;;
58928;SDS011;44713;53.378;10.022;2023-03-14T03:25:56;9.80;;;2.83;;
58928;SDS011;44713;53.378;10.022;2023-03-14T03:28:22;6.88;;;2.70;;
58928;SDS011;44713;53.378;10.022;2023-03-14T03:30:49;7.78;;;2.65;;
58928;SDS011;44713;53.378;10.022;2023-03-14T03:33:14;5.65;;;2.67;;
58928;SDS011;44713;53.378;10.022;2023-03-14T03:35:47;9.77;;;2.85;;
58928;SDS011;44713;53.378;10.022;2023-03-14T03:38:18;9.30;;;2.75;;
58928;SDS011;44713;53.378;10.022;2023-03-14T03:40:46;6.78;;;2.45;;
58928;SDS011;44713;53.378;10.022;2023-03-14T03:43:11;8.32;;;2.70;;
58928;SDS011;44713;53.378;10.022;2023-03-14T03:45:40;9.32;;;2.72;;
58928;SDS011;44713;53.378;10.022;2023-03-14T03:48:05;6.72;;;2.55;;
58928;SDS011;44713;53.378;10.022;2023-03-14T03:50:31;10.38;;;2.67;;
58928;SDS011;44713;53.378;10.022;2023-03-14T03:52:56;8.85;;;2.97;;
58928;SDS011;44713;53.378;10.022;2023-03-14T03:55:21;7.35;;;2.55;;
58928;SDS011;44713;53.378;10.022;2023-03-14T03:57:47;6.60;;;2.38;;
58928;SDS011;44713;53.378;10.022;2023-03-14T04:00:12;7.55;;;2.38;;
58928;SDS011;44713;53.378;10.022;2023-03-14T04:02:41;11.18;;;2.83;;
58928;SDS011;44713;53.378;10.022;2023-03-14T04:05:09;6.10;;;2.42;;
58928;SDS011;44713;53.378;10.022;2023-03-14T04:07:36;9.15;;;2.97;;
58928;SDS011;44713;53.378;10.022;2023-03-14T04:10:01;9.65;;;2.28;;
58928;SDS011;44713;53.378;10.022;2023-03-14T04:12:50;6.63;;;2.50;;
58928;SDS011;44713;53.378;10.022;2023-03-14T04:15:19;9.80;;;2.50;;
58928;SDS011;44713;53.378;10.022;2023-03-14T04:17:48;7.45;;;2.78;;
58928;SDS011;44713;53.378;10.022;2023-03-14T04:20:15;7.72;;;2.45;;
58928;SDS011;44713;53.378;10.022;2023-03-14T04:22:40;8.43;;;2.65;;
58928;SDS011;44713;53.378;10.022;2023-03-14T04:25:06;6.95;;;2.47;;
58928;SDS011;44713;53.378;10.022;2023-03-14T04:27:37;6.93;;;2.67;;
58928;SDS011;44713;53.378;10.022;2023-03-14T04:30:06;6.03;;;2.70;;
58928;SDS011;44713;53.378;10.022;2023-03-14T04:32:54;7.75;;;3.08;;
58928;SDS011;44713;53.378;10.022;2023-03-14T04:35:23;5.60;;;2.60;;
58928;SDS011;44713;53.378;10.022;2023-03-14T04:37:52;11.68;;;3.00;;
58928;SDS011;44713;53.378;10.022;2023-03-14T04:40:19;8.15;;;2.88;;
58928;SDS011;44713;53.378;10.022;2023-03-14T04:42:45;7.30;;;2.85;;
58928;SDS011;44713;53.378;10.022;2023-03-14T04:45:11;10.20;;;3.10;;
58928;SDS011;44713;53.378;10.022;2023-03-14T04:47:39;7.78;;;3.00;;
58928;SDS011;44713;53.378;10.022;2023-03-14T04:50:05;9.32;;;2.60;;
58928;SDS011;44713;53.378;10.022;2023-03-14T04:52:31;7.18;;;2.40;;
58928;SDS011;44713;53.378;10.022;2023-03-14T04:54:57;10.95;;;2.50;;
58928;SDS011;44713;53.378;10.022;2023-03-14T04:57:25;10.38;;;2.10;;
58928;SDS011;44713;53.378;10.022;2023-03-14T04:59:51;5.20;;;2.10;;
58928;SDS011;44713;53.378;10.022;2023-03-14T05:02:45;5.38;;;1.80;;
58928;SDS011;44713;53.378;10.022;2023-03-14T05:05:40;9.05;;;2.40;;
58928;SDS011;44713;53.378;10.022;2023-03-14T05:08:12;6.65;;;2.15;;
58928;SDS011;44713;53.378;10.022;2023-03-14T05:10:53;5.13;;;2.42;;
58928;SDS011;44713;53.378;10.022;2023-03-14T05:13:44;9.15;;;2.70;;
58928;SDS011;44713;53.378;10.022;2023-03-14T05:16:32;7.20;;;2.53;;
58928;SDS011;44713;53.378;10.022;2023-03-14T05:19:14;6.97;;;2.70;;
58928;SDS011;44713;53.378;10.022;2023-03-14T05:21:58;8.15;;;2.85;;
58928;SDS011;44713;53.378;10.022;2023-03-14T05:24:42;9.52;;;2.90;;
58928;SDS011;44713;53.378;10.022;2023-03-14T05:27:15;6.07;;;2.35;;
58928;SDS011;44713;53.378;10.022;2023-03-14T05:30:10;10.35;;;2.70;;
58928;SDS011;44713;53.378;10.022;2023-03-14T05:32:54;11.75;;;2.28;;
58928;SDS011;44713;53.378;10.022;2023-03-14T05:35:41;4.13;;;2.38;;
58928;SDS011;44713;53.378;10.022;2023-03-14T05:38:30;4.35;;;2.10;;
58928;SDS011;44713;53.378;10.022;2023-03-14T05:41:25;7.28;;;2.65;;
58928;SDS011;44713;53.378;10.022;2023-03-14T05:44:15;5.72;;;1.90;;
58928;SDS011;44713;53.378;10.022;2023-03-14T05:46:59;9.68;;;2.30;;
58928;SDS011;44713;53.378;10.022;2023-03-14T05:49:42;8.13;;;2.10;;
58928;SDS011;44713;53.378;10.022;2023-03-14T05:52:20;8.73;;;2.10;;
58928;SDS011;44713;53.378;10.022;2023-03-14T05:55:02;5.72;;;2.35;;
58928;SDS011;44713;53.378;10.022;2023-03-14T05:57:45;5.03;;;2.10;;
58928;SDS011;44713;53.378;10.022;2023-03-14T06:00:18;2.88;;;1.60;;
58928;SDS011;44713;53.378;10.022;2023-03-14T06:02:57;4.95;;;2.47;;
58928;SDS011;44713;53.378;10.022;2023-03-14T06:05:28;7.10;;;2.63;;
58928;SDS011;44713;53.378;10.022;2023-03-14T06:07:58;5.70;;;2.40;;
58928;SDS011;44713;53.378;10.022;2023-03-14T06:10:26;8.65;;;2.75;;
58928;SDS011;44713;53.378;10.022;2023-03-14T06:12:51;7.38;;;2.60;;
58928;SDS011;44713;53.378;10.022;2023-03-14T06:15:16;7.22;;;2.58;;
58928;SDS011;44713;53.378;10.022;2023-03-14T06:17:45;5.78;;;2.45;;
58928;SDS011;44713;53.378;10.022;2023-03-14T06:20:12;9.30;;;2.45;;
58928;SDS011;44713;53.378;10.022;2023-03-14T06:22:38;6.15;;;2.00;;
58928;SDS011;44713;53.378;10.022;2023-03-14T06:25:06;5.43;;;2.08;;
58928;SDS011;44713;53.378;10.022;2023-03-14T06:27:32;7.82;;;1.90;;
58928;SDS011;44713;53.378;10.022;2023-03-14T06:29:58;6.88;;;2.58;;
58928;SDS011;44713;53.378;10.022;2023-03-14T06:32:24;5.53;;;2.10;;
58928;SDS011;44713;53.378;10.022;2023-03-14T06:34:53;4.07;;;1.83;;
58928;SDS011;44713;53.378;10.022;2023-03-14T06:37:18;10.38;;;2.38;;
58928;SDS011;44713;53.378;10.022;2023-03-14T06:39:45;7.03;;;2.22;;
58928;SDS011;44713;53.378;10.022;2023-03-14T06:42:20;2.85;;;1.88;;
58928;SDS011;44713;53.378;10.022;2023-03-14T06:44:46;6.68;;;1.88;;
58928;SDS011;44713;53.378;10.022;2023-03-14T06:47:12;6.32;;;1.92;;
58928;SDS011;44713;53.378;10.022;2023-03-14T06:49:41;7.85;;;1.83;;
58928;SDS011;44713;53.378;10.022;2023-03-14T06:52:06;5.55;;;1.88;;
58928;SDS011;44713;53.378;10.022;2023-03-14T06:54:32;6.35;;;2.20;;
58928;SDS011;44713;53.378;10.022;2023-03-14T06:56:57;7.40;;;2.17;;
58928;SDS011;44713;53.378;10.022;2023-03-14T06:59:23;4.90;;;1.83;;
58928;SDS011;44713;53.378;10.022;2023-03-14T07:01:48;6.78;;;2.33;;
58928;SDS011;44713;53.378;10.022;2023-03-14T07:04:15;6.47;;;2.08;;
58928;SDS011;44713;53.378;10.022;2023-03-14T07:06:45;7.82;;;2.05;;
58928;SDS011;44713;53.378;10.022;2023-03-14T07:09:12;4.18;;;1.73;;
58928;SDS011;44713;53.378;10.022;2023-03-14T07:11:43;5.90;;;1.85;;
58928;SDS011;44713;53.378;10.022;2023-03-14T07:14:08;6.80;;;1.67;;
58928;SDS011;44713;53.378;10.022;2023-03-14T07:16:34;5.38;;;1.50;;
58928;SDS011;44713;53.378;10.022;2023-03-14T07:19:00;4.25;;;1.30;;
58928;SDS011;44713;53.378;10.022;2023-03-14T07:21:26;5.97;;;1.50;;
58928;SDS011;44713;53.378;10.022;2023-03-14T07:23:52;7.38;;;1.48;;
58928;SDS011;44713;53.378;10.022;2023-03-14T07:26:18;3.47;;;1.55;;
58928;SDS011;44713;53.378;10.022;2023-03-14T07:28:48;4.38;;;1.40;;
58928;SDS011;44713;53.378;10.022;2023-03-14T07:31:17;2.53;;;1.20;;
58928;SDS011;44713;53.378;10.022;2023-03-14T07:33:42;5.55;;;1.13;;
58928;SDS011;44713;53.378;10.022;2023-03-14T07:36:08;4.68;;;1.63;;
58928;SDS011;44713;53.378;10.022;2023-03-14T07:38:33;3.25;;;1.60;;
58928;SDS011;44713;53.378;10.022;2023-03-14T07:41:10;4.57;;;1.90;;
58928;SDS011;44713;53.378;10.022;2023-03-14T07:43:43;4.57;;;1.60;;
58928;SDS011;44713;53.378;10.022;2023-03-14T07:46:09;3.88;;;1.90;;
58928;SDS011;44713;53.378;10.022;2023-03-14T07:48:34;4.13;;;2.00;;
58928;SDS011;44713;53.378;10.022;2023-03-14T07:51:00;5.95;;;1.98;;
58928;SDS011;44713;53.378;10.022;2023-03-14T07:53:25;6.65;;;2.30;;
58928;SDS011;44713;53.378;10.022;2023-03-14T07:55:51;5.85;;;2.20;;
58928;SDS011;44713;53.378;10.022;2023-03-14T07:58:17;5.18;;;2.35;;
58928;SDS011;44713;53.378;10.022;2023-03-14T08:00:43;5.50;;;2.25;;
58928;SDS011;44713;53.378;10.022;2023-03-14T08:03:09;10.65;;;2.25;;
58928;SDS011;44713;53.378;10.022;2023-03-14T08:05:35;3.92;;;2.20;;
58928;SDS011;44713;53.378;10.022;2023-03-14T08:08:01;7.32;;;2.97;;
58928;SDS011;44713;53.378;10.022;2023-03-14T08:10:27;8.88;;;2.92;;
58928;SDS011;44713;53.378;10.022;2023-03-14T08:12:54;9.18;;;3.35;;
58928;SDS011;44713;53.378;10.022;2023-03-14T08:15:21;8.05;;;3.35;;
58928;SDS011;44713;53.378;10.022;2023-03-14T08:17:46;10.82;;;4.25;;
58928;SDS011;44713;53.378;10.022;2023-03-14T08:20:16;7.03;;;3.90;;
58928;SDS011;44713;53.378;10.022;2023-03-14T08:22:42;6.80;;;4.30;;
58928;SDS011;44713;53.378;10.022;2023-03-14T08:25:07;13.50;;;4.07;;
58928;SDS011;44713;53.378;10.022;2023-03-14T08:27:33;12.88;;;4.57;;
58928;SDS011;44713;53.378;10.022;2023-03-14T08:29:58;9.02;;;4.63;;
58928;SDS011;44713;53.378;10.022;2023-03-14T08:32:24;13.32;;;4.63;;
58928;SDS011;44713;53.378;10.022;2023-03-14T08:34:49;10.90;;;5.30;;
58928;SDS011;44713;53.378;10.022;2023-03-14T08:37:15;8.52;;;4.70;;
58928;SDS011;44713;53.378;10.022;2023-03-14T08:39:40;10.70;;;4.45;;
58928;SDS011;44713;53.378;10.022;2023-03-14T08:42:05;12.15;;;5.18;;
58928;SDS011;44713;53.378;10.022;2023-03-14T08:44:31;13.02;;;5.00;;
58928;SDS011;44713;53.378;10.022;2023-03-14T08:46:56;11.20;;;4.93;;
58928;SDS011;44713;53.378;10.022;2023-03-14T08:49:22;11.82;;;4.70;;
58928;SDS011;44713;53.378;10.022;2023-03-14T08:51:47;9.98;;;4.43;;
58928;SDS011;44713;53.378;10.022;2023-03-14T08:54:12;11.27;;;4.82;;
58928;SDS011;44713;53.378;10.022;2023-03-14T08:56:38;10.90;;;4.45;;
58928;SDS011;44713;53.378;10.022;2023-03-14T08:59:04;12.05;;;4.03;;
58928;SDS011;44713;53.378;10.022;2023-03-14T09:01:30;13.15;;;4.47;;
58928;SDS011;44713;53.378;10.022;2023-03-14T09:03:55;10.50;;;3.55;;
58928;SDS011;44713;53.378;10.022;2023-03-14T09:06:20;9.18;;;3.42;;
58928;SDS011;44713;53.378;10.022;2023-03-14T09:08:46;11.50;;;3.55;;
58928;SDS011;44713;53.378;10.022;2023-03-14T09:11:12;6.50;;;3.35;;
58928;SDS011;44713;53.378;10.022;2023-03-14T09:13:38;10.02;;;3.22;;
58928;SDS011;44713;53.378;10.022;2023-03-14T09:16:03;6.65;;;3.13;;
58928;SDS011;44713;53.378;10.022;2023-03-14T09:18:29;9.20;;;3.05;;
58928;SDS011;44713;53.378;10.022;2023-03-14T09:20:55;9.05;;;3.13;;
58928;SDS011;44713;53.378;10.022;2023-03-14T09:23:20;5.32;;;2.65;;
58928;SDS011;44713;53.378;10.022;2023-03-14T09:25:46;6.95;;;2.67;;
58928;SDS011;44713;53.378;10.022;2023-03-14T09:28:11;8.07;;;2.70;;
58928;SDS011;44713;53.378;10.022;2023-03-14T09:30:38;6.22;;;2.58;;
58928;SDS011;44713;53.378;10.022;2023-03-14T09:33:03;7.65;;;2.90;;
58928;SDS011;44713;53.378;10.022;2023-03-14T09:35:29;7.85;;;2.58;;
58928;SDS011;44713;53.378;10.022;2023-03-14T09:37:54;7.38;;;2.30;;
58928;SDS011;44713;53.378;10.022;2023-03-14T09:40:20;4.80;;;2.20;;
58928;SDS011;44713;53.378;10.022;2023-03-14T09:42:46;7.78;;;2.13;;
58928;SDS011;44713;53.378;10.022;2023-03-14T09:45:17;5.32;;;2.20;;
58928;SDS011;44713;53.378;10.022;2023-03-14T09:47:50;5.47;;;2.13;;
58928;SDS011;44713;53.378;10.022;2023-03-14T09:50:16;5.75;;;1.77;;
58928;SDS011;44713;53.378;10.022;2023-03-14T09:52:42;4.40;;;1.58;;
58928;SDS011;44713;53.378;10.022;2023-03-14T09:57:42;5.00;;;1.75;;
58928;SDS011;44713;53.378;10.022;2023-03-14T10:00:20;6.07;;;1.48;;
58928;SDS011;44713;53.378;10.022;2023-03-14T10:02:50;3.55;;;1.38;;
58928;SDS011;44713;53.378;10.022;2023-03-14T10:05:19;4.18;;;1.50;;
58928;SDS011;44713;53.378;10.022;2023-03-14T10:07:46;4.22;;;1.40;;
58928;SDS011;44713;53.378;10.022;2023-03-14T10:10:13;2.72;;;1.15;;
58928;SDS011;44713;53.378;10.022;2023-03-14T10:12:48;3.40;;;1.33;;
58928;SDS011;44713;53.378;10.022;2023-03-14T10:15:29;1.45;;;0.70;;
58928;SDS011;44713;53.378;10.022;2023-03-14T10:17:58;3.83;;;0.43;;
58928;SDS011;44713;53.378;10.022;2023-03-14T10:20:32;1.92;;;0.47;;
58928;SDS011;44713;53.378;10.022;2023-03-14T10:23:02;2.42;;;0.50;;
58928;SDS011;44713;53.378;10.022;2023-03-14T10:25:58;0.93;;;0.50;;
58928;SDS011;44713;53.378;10.022;2023-03-14T10:28:29;2.78;;;0.77;;
58928;SDS011;44713;53.378;10.022;2023-03-14T10:31:02;1.52;;;0.80;;
58928;SDS011;44713;53.378;10.022;2023-03-14T10:33:28;1.05;;;0.80;;
58928;SDS011;44713;53.378;10.022;2023-03-14T10:35:56;3.55;;;1.10;;
58928;SDS011;44713;53.378;10.022;2023-03-14T10:38:35;2.75;;;1.08;;
58928;SDS011;44713;53.378;10.022;2023-03-14T10:41:01;1.95;;;1.48;;
58928;SDS011;44713;53.378;10.022;2023-03-14T10:43:39;6.15;;;2.13;;
58928;SDS011;44713;53.378;10.022;2023-03-14T10:46:09;5.22;;;2.13;;
58928;SDS011;44713;53.378;10.022;2023-03-14T10:48:59;4.95;;;2.72;;
58928;SDS011;44713;53.378;10.022;2023-03-14T10:51:30;3.50;;;2.53;;
58928;SDS011;44713;53.378;10.022;2023-03-14T10:54:03;5.95;;;2.38;;
58928;SDS011;44713;53.378;10.022;2023-03-14T10:56:37;8.07;;;2.20;;
58928;SDS011;44713;53.378;10.022;2023-03-14T10:59:03;2.72;;;1.65;;
58928;SDS011;44713;53.378;10.022;2023-03-14T11:13:16;3.28;;;0.50;;
58928;SDS011;44713;53.378;10.022;2023-03-14T11:19:00;4.50;;;1.05;;
58928;SDS011;44713;53.378;10.022;2023-03-14T11:21:43;0.70;;;0.40;;
58928;SDS011;44713;53.378;10.022;2023-03-14T11:32:35;2.40;;;0.47;;
58928;SDS011;44713;53.378;10.022;2023-03-14T11:35:20;3.47;;;0.60;;
58928;SDS011;44713;53.378;10.022;2023-03-14T11:37:51;3.28;;;0.50;;
58928;SDS011;44713;53.378;10.022;2023-03-14T11:40:20;3.25;;;0.43;;
58928;SDS011;44713;53.378;10.022;2023-03-14T11:42:49;2.60;;;0.60;;
58928;SDS011;44713;53.378;10.022;2023-03-14T11:45:26;1.35;;;0.40;;
58928;SDS011;44713;53.378;10.022;2023-03-14T11:50:57;1.73;;;0.50;;
58928;SDS011;44713;53.378;10.022;2023-03-14T11:56:13;4.45;;;0.57;;
58928;SDS011;44713;53.378;10.022;2023-03-14T11:58:49;4.95;;;0.70;;
58928;SDS011;44713;53.378;10.022;2023-03-14T12:01:19;3.25;;;0.60;;
58928;SDS011;44713;53.378;10.022;2023-03-14T12:03:53;2.17;;;0.65;;
58928;SDS011;44713;53.378;10.022;2023-03-14T12:08:58;4.20;;;0.77;;
58928;SDS011;44713;53.378;10.022;2023-03-14T12:13:59;4.13;;;0.90;;
58928;SDS011;44713;53.378;10.022;2023-03-14T12:16:32;4.72;;;1.05;;
58928;SDS011;44713;53.378;10.022;2023-03-14T12:19:13;7.22;;;0.65;;
58928;SDS011;44713;53.378;10.022;2023-03-14T12:24:20;9.60;;;1.20;;
58928;SDS011;44713;53.378;10.022;2023-03-14T12:26:59;6.25;;;0.90;;
58928;SDS011;44713;53.378;10.022;2023-03-14T12:29:26;9.82;;;1.10;;
58928;SDS011;44713;53.378;10.022;2023-03-14T12:45:11;3.67;;;0.90;;
58928;SDS011;44713;53.378;10.022;2023-03-14T12:47:45;11.90;;;2.22;;
58928;SDS011;44713;53.378;10.022;2023-03-14T12:50:18;12.90;;;2.47;;
58928;SDS011;44713;53.378;10.022;2023-03-14T12:55:36;12.90;;;2.45;;
58928;SDS011;44713;53.378;10.022;2023-03-14T12:58:15;6.47;;;1.00;;
58928;SDS011;44713;53.378;10.022;2023-03-14T13:00:51;10.55;;;1.80;;
58928;SDS011;44713;53.378;10.022;2023-03-14T13:03:21;13.38;;;2.85;;
58928;SDS011;44713;53.378;10.022;2023-03-14T13:05:53;16.50;;;2.33;;
58928;SDS011;44713;53.378;10.022;2023-03-14T13:11:10;10.82;;;1.70;;
58928;SDS011;44713;53.378;10.022;2023-03-14T13:13:41;11.43;;;1.65;;
58928;SDS011;44713;53.378;10.022;2023-03-14T13:16:12;16.50;;;1.70;;
58928;SDS011;44713;53.378;10.022;2023-03-14T13:18:42;14.98;;;1.92;;
58928;SDS011;44713;53.378;10.022;2023-03-14T13:21:16;9.07;;;1.85;;
58928;SDS011;44713;53.378;10.022;2023-03-14T13:23:55;17.33;;;2.35;;
58928;SDS011;44713;53.378;10.022;2023-03-14T13:26:23;12.27;;;1.92;;
58928;SDS011;44713;53.378;10.022;2023-03-14T13:28:56;15.20;;;2.35;;
58928;SDS011;44713;53.378;10.022;2023-03-14T13:31:23;19.08;;;2.15;;
58928;SDS011;44713;53.378;10.022;2023-03-14T13:34:10;17.02;;;1.92;;
58928;SDS011;44713;53.378;10.022;2023-03-14T13:36:35;20.20;;;3.05;;
58928;SDS011;44713;53.378;10.022;2023-03-14T13:39:02;11.65;;;2.10;;
58928;SDS011;44713;53.378;10.022;2023-03-14T13:41:29;7.82;;;1.58;;
58928;SDS011;44713;53.378;10.022;2023-03-14T13:44:15;15.00;;;1.92;;
58928;SDS011;44713;53.378;10.022;2023-03-14T13:46:42;7.80;;;1.65;;
58928;SDS011;44713;53.378;10.022;2023-03-14T13:49:12;13.02;;;1.88;;
58928;SDS011;44713;53.378;10.022;2023-03-14T13:51:46;12.00;;;2.60;;
58928;SDS011;44713;53.378;10.022;2023-03-14T13:54:16;10.18;;;1.65;;
58928;SDS011;44713;53.378;10.022;2023-03-14T13:56:43;11.77;;;1.50;;
58928;SDS011;44713;53.378;10.022;2023-03-14T13:59:28;11.32;;;1.55;;
58928;SDS011;44713;53.378;10.022;2023-03-14T14:01:56;8.73;;;1.10;;
58928;SDS011;44713;53.378;10.022;2023-03-14T14:04:24;8.52;;;1.92;;
58928;SDS011;44713;53.378;10.022;2023-03-14T14:07:01;7.47;;;1.52;;
58928;SDS011;44713;53.378;10.022;2023-03-14T14:09:39;12.65;;;2.00;;
58928;SDS011;44713;53.378;10.022;2023-03-14T14:12:19;11.77;;;1.83;;
58928;SDS011;44713;53.378;10.022;2023-03-14T14:15:02;7.70;;;1.33;;
58928;SDS011;44713;53.378;10.022;2023-03-14T14:17:33;9.95;;;1.40;;
58928;SDS011;44713;53.378;10.022;2023-03-14T14:20:00;12.68;;;1.48;;
58928;SDS011;44713;53.378;10.022;2023-03-14T14:22:29;10.38;;;1.45;;
58928;SDS011;44713;53.378;10.022;2023-03-14T14:24:55;9.13;;;1.77;;
58928;SDS011;44713;53.378;10.022;2023-03-14T14:32:43;12.77;;;1.47;;
58928;SDS011;44713;53.378;10.022;2023-03-14T14:37:58;14.75;;;2.00;;
58928;SDS011;44713;53.378;10.022;2023-03-14T14:40:27;11.35;;;1.30;;
58928;SDS011;44713;53.378;10.022;2023-03-14T14:42:55;14.20;;;1.38;;
58928;SDS011;44713;53.378;10.022;2023-03-14T14:45:27;7.25;;;1.10;;
58928;SDS011;44713;53.378;10.022;2023-03-14T14:48:10;9.80;;;1.50;;
58928;SDS011;44713;53.378;10.022;2023-03-14T14:50:38;7.95;;;1.40;;
58928;SDS011;44713;53.378;10.022;2023-03-14T14:56:07;7.32;;;1.77;;
58928;SDS011;44713;53.378;10.022;2023-03-14T14:58:44;8.23;;;1.15;;
58928;SDS011;44713;53.378;10.022;2023-03-14T15:03:42;4.28;;;0.98;;
58928;SDS011;44713;53.378;10.022;2023-03-14T15:06:08;6.95;;;1.23;;
58928;SDS011;44713;53.378;10.022;2023-03-14T15:08:37;6.72;;;1.20;;
58928;SDS011;44713;53.378;10.022;2023-03-14T15:11:03;7.80;;;1.33;;
58928;SDS011;44713;53.378;10.022;2023-03-14T15:13:28;9.30;;;1.23;;
58928;SDS011;44713;53.378;10.022;2023-03-14T15:15:53;8.98;;;1.23;;
58928;SDS011;44713;53.378;10.022;2023-03-14T15:18:21;7.68;;;1.30;;
58928;SDS011;44713;53.378;10.022;2023-03-14T15:20:47;10.00;;;1.10;;
58928;SDS011;44713;53.378;10.022;2023-03-14T15:23:14;9.30;;;1.00;;
58928;SDS011;44713;53.378;10.022;2023-03-14T15:25:41;7.57;;;1.30;;
58928;SDS011;44713;53.378;10.022;2023-03-14T15:28:23;4.90;;;0.90;;
58928;SDS011;44713;53.378;10.022;2023-03-14T15:30:54;8.13;;;1.52;;
58928;SDS011;44713;53.378;10.022;2023-03-14T15:33:21;4.38;;;1.30;;
58928;SDS011;44713;53.378;10.022;2023-03-14T15:35:47;11.68;;;1.63;;
58928;SDS011;44713;53.378;10.022;2023-03-14T15:38:15;6.55;;;1.25;;
58928;SDS011;44713;53.378;10.022;2023-03-14T15:40:47;11.38;;;1.90;;
58928;SDS011;44713;53.378;10.022;2023-03-14T15:43:14;7.82;;;1.60;;
58928;SDS011;44713;53.378;10.022;2023-03-14T15:45:39;14.13;;;1.40;;
58928;SDS011;44713;53.378;10.022;2023-03-14T15:48:06;12.02;;;1.30;;
58928;SDS011;44713;53.378;10.022;2023-03-14T15:50:37;13.68;;;1.45;;
58928;SDS011;44713;53.378;10.022;2023-03-14T15:53:02;6.18;;;1.10;;
58928;SDS011;44713;53.378;10.022;2023-03-14T15:55:27;8.52;;;1.52;;
58928;SDS011;44713;53.378;10.022;2023-03-14T15:57:53;8.77;;;1.40;;
58928;SDS011;44713;53.378;10.022;2023-03-14T16:00:18;13.93;;;1.52;;
58928;SDS011;44713;53.378;10.022;2023-03-14T16:02:46;16.77;;;2.40;;
58928;SDS011;44713;53.378;10.022;2023-03-14T16:05:12;11.85;;;1.42;;